Monday, December 18, 2017, 5:52 AM EST
Back to Local

KOKV, Winchester Regional

Location: Winchester, VA, United States Lat: 39.15
Local Time: 5:52 AM EST (10:52 GMT) Lon: -78.15
Time Zone: US/Eastern Elev: 728 ft

Show me the last for .
Show Coded

Time T Td Feel RH Dir Speed Gust Alt SLP Vis Weather Sky Remarks
2017-12-18 05:35 34 32 - 93 - Calm - 30.10 - 10 SCT036 OVC041 None
2017-12-18 05:15 34 32 31 93 130° 3 - 30.10 - 10 OVC036 None
2017-12-18 04:55 34 32 - 93 - Calm - 30.10 - 10 BKN038 BKN046 OVC060 None
2017-12-18 04:35 36 32 - 86 - Calm - 30.10 - 10 SCT036 OVC060 None
2017-12-18 04:15 36 32 - 86 - Calm - 30.10 - 10 OVC038 None
2017-12-18 03:55 36 32 - 86 - Calm - 30.10 - 10 OVC040 None
2017-12-18 03:35 37 32 - 80 - Calm - 30.10 - 10 OVC040 None
2017-12-18 03:15 37 32 - 80 - Calm - 30.10 - 10 OVC040 None
2017-12-18 02:55 37 32 - 80 - Calm - 30.10 - 10 OVC042 None
2017-12-18 02:35 37 32 - 80 - Calm - 30.11 - 10 OVC044 None
2017-12-18 02:15 37 32 - 80 - Calm - 30.10 - 10 OVC044 None
2017-12-18 01:55 37 32 - 80 - Calm - 30.10 - 10 OVC046 None
2017-12-18 01:35 37 34 - 86 - Calm - 30.10 - 10 OVC046 None
2017-12-18 01:15 37 34 - 86 - Calm - 30.10 - 10 OVC048 None
2017-12-18 00:55 37 34 - 86 - Calm - 30.10 - 10 OVC048 None
2017-12-18 00:35 37 34 - 86 - Calm - 30.11 - 10 OVC050 None
2017-12-18 00:15 37 34 - 86 - Calm - 30.12 - 10 SCT045 OVC050 None
2017-12-17 23:55 37 34 - 86 - Calm - 30.12 - 10 BKN041 OVC050 None
2017-12-17 23:35 37 34 - 86 - Calm - 30.13 - 10 OVC043 None
2017-12-17 23:15 37 34 - 86 - Calm - 30.13 - 10 OVC048 None
2017-12-17 22:55 37 34 - 86 - Calm - 30.12 - 10 OVC050 None
2017-12-17 22:35 37 34 - 86 - Calm - 30.13 - 10 OVC060 None
2017-12-17 22:15 37 34 - 86 - Calm - 30.13 - 10 OVC060 None
2017-12-17 21:55 37 32 - 80 - Calm - 30.13 - 10 RA OVC060 None
2017-12-17 21:40 37 32 - 80 - Calm - 30.13 - 10 OVC060 None
2017-12-17 21:10 37 34 - 86 - Calm - 30.14 - 10 BKN060 BKN075 OVC080 None
2017-12-17 20:55 37 32 - 80 - Calm - 30.13 - 10 -DZ SCT060 OVC085 None
2017-12-17 20:35 37 32 - 80 - Calm - 30.13 - 10 -DZ BKN060 OVC070 None
2017-12-17 20:15 37 32 - 80 - Calm - 30.13 - 10 SCT070 OVC080 None
2017-12-17 19:55 39 30 - 69 - Calm - 30.15 - 10 OVC090 None
2017-12-17 19:35 39 30 - 69 - Calm - 30.15 - 10 OVC090 None
2017-12-17 19:15 39 30 - 69 - Calm - 30.14 - 10 OVC090 None
2017-12-17 18:55 39 30 - 69 - Calm - 30.14 - 10 OVC090 None
2017-12-17 18:35 41 30 - 65 - Calm - 30.16 - 10 OVC090 None
2017-12-17 18:15 41 30 - 65 - Calm - 30.17 - 10 SCT070 OVC090 None
2017-12-17 17:55 41 30 - 65 - Calm - 30.17 - 10 BKN065 OVC090 None
2017-12-17 17:35 41 30 - 65 - Calm - 30.17 - 10 OVC090 None
2017-12-17 17:15 41 30 - 65 - Calm - 30.18 - 10 BKN100 OVC120 None
2017-12-17 16:55 43 28 - 56 - Calm - 30.17 - 10 BKN110 None
2017-12-17 16:35 43 28 - 56 - Calm - 30.13 - 10 BKN120 None
2017-12-17 16:15 43 30 - 60 - Calm - 30.14 - 10 BKN120 None
2017-12-17 15:55 45 28 - 52 - Calm - 30.14 - 10 BKN120 None
2017-12-17 15:35 45 30 - 56 - Calm - 30.13 - 10 BKN110 None
2017-12-17 15:15 45 28 - 52 - Calm - 30.14 - 10 BKN120 None
2017-12-17 14:55 45 28 43 52 150° 3 - 30.15 - 10 BKN110 None
2017-12-17 14:35 45 28 - 52 - Calm - 30.15 - 10 OVC110 None
2017-12-17 14:15 45 28 42 52 190° 5 - 30.16 - 10 OVC110 None
2017-12-17 13:55 45 28 - 52 - Calm - 30.16 - 10 BKN120 None
2017-12-17 13:35 45 28 - 52 - Calm - 30.17 - 10 SCT120 None
2017-12-17 13:15 45 28 42 52 180° 5 - 30.17 - 10 CLR None
2017-12-17 12:55 45 28 43 52 230° 3 - 30.18 - 10 CLR None
2017-12-17 12:35 45 27 41 48 220° 6 - 30.20 - 10 CLR None
2017-12-17 12:15 43 28 39 56 220° 6 - 30.21 - 10 CLR None
2017-12-17 11:55 43 28 39 56 210° 6 - 30.22 - 10 CLR None
2017-12-17 11:35 43 28 39 56 210° 6 - 30.23 - 10 CLR None
2017-12-17 11:15 41 28 - 60 - Calm - 30.25 - 10 CLR None
2017-12-17 10:55 41 27 36 56 220° 7 - 30.27 - 10 CLR None
2017-12-17 10:35 41 27 37 56 240° 6 - 30.26 - 10 CLR None
2017-12-17 10:15 41 28 38 60 200° 5 - 30.25 - 10 CLR None
2017-12-17 09:55 37 27 - 64 - Calm - 30.23 - 10 CLR None
2017-12-17 09:35 37 27 35 64 270° 3 - 30.23 - 10 CLR None
2017-12-17 09:15 36 27 33 69 240° 3 - 30.23 - 10 CLR None
2017-12-17 08:55 34 25 30 69 240° 5 - 30.25 - 10 CLR None
2017-12-17 08:35 34 25 29 69 220° 6 - 30.25 - 10 CLR None
2017-12-17 08:15 34 25 30 69 200° 5 - 30.24 - 10 CLR None
2017-12-17 07:55 32 25 27 74 230° 5 - 30.23 - 10 CLR None
2017-12-17 07:40 32 25 - 74 - Calm - 30.23 - 10 CLR None
2017-12-17 07:15 30 25 - 80 - Calm - 30.23 - 10 CLR None
2017-12-17 06:55 34 23 31 64 250° 3 - 30.22 - 10 CLR None
2017-12-17 06:35 34 23 30 64 250° 5 - 30.21 - 10 CLR None
2017-12-17 06:15 32 23 27 68 230° 5 - 30.22 - 10 CLR None
2017-12-17 05:55 32 23 27 68 220° 5 - 30.22 - 10 CLR None

Support USWX by starting your Amazon purchase here.